sensor_id;sensor_type;location;lat;lon;timestamp;temperature;humidity
3488;DHT22;38546;48.170;11.724;2023-03-17T00:02:11;2.70;99.90
3488;DHT22;38546;48.170;11.724;2023-03-17T00:05:00;2.70;99.90
3488;DHT22;38546;48.170;11.724;2023-03-17T00:07:52;2.70;99.90
3488;DHT22;38546;48.170;11.724;2023-03-17T00:10:42;2.70;99.90
3488;DHT22;38546;48.170;11.724;2023-03-17T00:13:31;2.70;99.90
3488;DHT22;38546;48.170;11.724;2023-03-17T00:16:24;2.70;99.90
3488;DHT22;38546;48.170;11.724;2023-03-17T00:19:17;2.60;99.90
3488;DHT22;38546;48.170;11.724;2023-03-17T00:22:15;2.60;99.90
3488;DHT22;38546;48.170;11.724;2023-03-17T00:25:49;2.50;99.90
3488;DHT22;38546;48.170;11.724;2023-03-17T00:28:41;2.50;99.90
3488;DHT22;38546;48.170;11.724;2023-03-17T00:31:33;2.50;99.90
3488;DHT22;38546;48.170;11.724;2023-03-17T00:34:22;2.50;99.90
3488;DHT22;38546;48.170;11.724;2023-03-17T00:37:12;2.50;99.90
3488;DHT22;38546;48.170;11.724;2023-03-17T00:40:01;2.50;99.90
3488;DHT22;38546;48.170;11.724;2023-03-17T00:42:52;2.50;99.90
3488;DHT22;38546;48.170;11.724;2023-03-17T00:45:42;2.40;99.90
3488;DHT22;38546;48.170;11.724;2023-03-17T00:48:31;2.40;99.90
3488;DHT22;38546;48.170;11.724;2023-03-17T00:51:21;2.40;99.90
3488;DHT22;38546;48.170;11.724;2023-03-17T00:54:12;2.40;99.90
3488;DHT22;38546;48.170;11.724;2023-03-17T00:57:02;2.40;99.90
3488;DHT22;38546;48.170;11.724;2023-03-17T00:59:51;2.30;99.90
3488;DHT22;38546;48.170;11.724;2023-03-17T01:02:41;2.30;99.90
3488;DHT22;38546;48.170;11.724;2023-03-17T01:05:30;2.20;99.90
3488;DHT22;38546;48.170;11.724;2023-03-17T01:08:20;2.20;99.90
3488;DHT22;38546;48.170;11.724;2023-03-17T01:11:15;2.10;99.90
3488;DHT22;38546;48.170;11.724;2023-03-17T01:14:06;2.10;99.90
3488;DHT22;38546;48.170;11.724;2023-03-17T01:16:57;2.00;99.90
3488;DHT22;38546;48.170;11.724;2023-03-17T01:19:48;2.00;99.90
3488;DHT22;38546;48.170;11.724;2023-03-17T01:22:37;2.00;99.90
3488;DHT22;38546;48.170;11.724;2023-03-17T01:25:26;2.00;99.90
3488;DHT22;38546;48.170;11.724;2023-03-17T01:28:17;1.90;99.90
3488;DHT22;38546;48.170;11.724;2023-03-17T01:31:07;1.90;99.90
3488;DHT22;38546;48.170;11.724;2023-03-17T01:33:57;1.90;99.90
3488;DHT22;38546;48.170;11.724;2023-03-17T01:36:46;1.80;99.90
3488;DHT22;38546;48.170;11.724;2023-03-17T01:39:36;1.80;99.90
3488;DHT22;38546;48.170;11.724;2023-03-17T01:42:27;1.80;99.90
3488;DHT22;38546;48.170;11.724;2023-03-17T01:46:38;1.70;99.90
3488;DHT22;38546;48.170;11.724;2023-03-17T01:49:34;1.70;99.90
3488;DHT22;38546;48.170;11.724;2023-03-17T01:52:26;1.70;99.90
3488;DHT22;38546;48.170;11.724;2023-03-17T01:55:17;1.60;99.90
3488;DHT22;38546;48.170;11.724;2023-03-17T01:58:08;1.50;99.90
3488;DHT22;38546;48.170;11.724;2023-03-17T02:00:57;1.50;99.90
3488;DHT22;38546;48.170;11.724;2023-03-17T02:03:47;1.40;99.90
3488;DHT22;38546;48.170;11.724;2023-03-17T02:06:37;1.40;99.90
3488;DHT22;38546;48.170;11.724;2023-03-17T02:09:27;1.30;99.90
3488;DHT22;38546;48.170;11.724;2023-03-17T02:12:16;1.30;99.90
3488;DHT22;38546;48.170;11.724;2023-03-17T02:15:06;1.30;99.90
3488;DHT22;38546;48.170;11.724;2023-03-17T02:17:56;1.20;99.90
3488;DHT22;38546;48.170;11.724;2023-03-17T02:22:21;1.20;99.90
3488;DHT22;38546;48.170;11.724;2023-03-17T02:25:10;1.20;99.90
3488;DHT22;38546;48.170;11.724;2023-03-17T02:28:12;1.10;99.90
3488;DHT22;38546;48.170;11.724;2023-03-17T02:31:04;1.10;99.90
3488;DHT22;38546;48.170;11.724;2023-03-17T02:33:53;1.10;99.90
3488;DHT22;38546;48.170;11.724;2023-03-17T02:36:43;1.00;99.90
3488;DHT22;38546;48.170;11.724;2023-03-17T02:39:33;1.00;99.90
3488;DHT22;38546;48.170;11.724;2023-03-17T02:42:22;0.90;99.90
3488;DHT22;38546;48.170;11.724;2023-03-17T02:45:12;0.90;99.90
3488;DHT22;38546;48.170;11.724;2023-03-17T02:48:02;0.90;99.90
3488;DHT22;38546;48.170;11.724;2023-03-17T02:50:52;0.90;99.90
3488;DHT22;38546;48.170;11.724;2023-03-17T02:53:42;0.90;99.90
3488;DHT22;38546;48.170;11.724;2023-03-17T02:56:31;0.90;99.90
3488;DHT22;38546;48.170;11.724;2023-03-17T02:59:21;0.90;99.90
3488;DHT22;38546;48.170;11.724;2023-03-17T03:02:10;0.90;99.90
3488;DHT22;38546;48.170;11.724;2023-03-17T03:05:00;0.90;99.90
3488;DHT22;38546;48.170;11.724;2023-03-17T03:07:49;1.00;99.90
3488;DHT22;38546;48.170;11.724;2023-03-17T03:10:40;0.90;99.90
3488;DHT22;38546;48.170;11.724;2023-03-17T03:13:30;0.90;99.90
3488;DHT22;38546;48.170;11.724;2023-03-17T03:16:20;0.90;99.90
3488;DHT22;38546;48.170;11.724;2023-03-17T03:19:10;0.90;99.90
3488;DHT22;38546;48.170;11.724;2023-03-17T03:21:59;0.90;99.90
3488;DHT22;38546;48.170;11.724;2023-03-17T03:24:49;0.90;99.90
3488;DHT22;38546;48.170;11.724;2023-03-17T03:27:38;1.00;99.90
3488;DHT22;38546;48.170;11.724;2023-03-17T03:30:27;1.00;99.90
3488;DHT22;38546;48.170;11.724;2023-03-17T03:33:17;1.00;99.90
3488;DHT22;38546;48.170;11.724;2023-03-17T03:36:07;1.00;99.90
3488;DHT22;38546;48.170;11.724;2023-03-17T03:38:56;1.00;99.90
3488;DHT22;38546;48.170;11.724;2023-03-17T03:41:46;1.00;99.90
3488;DHT22;38546;48.170;11.724;2023-03-17T03:44:35;1.00;99.90
3488;DHT22;38546;48.170;11.724;2023-03-17T03:47:25;1.10;99.90
3488;DHT22;38546;48.170;11.724;2023-03-17T03:50:14;1.10;99.90
3488;DHT22;38546;48.170;11.724;2023-03-17T03:53:03;1.20;99.90
3488;DHT22;38546;48.170;11.724;2023-03-17T03:55:53;1.20;99.90
3488;DHT22;38546;48.170;11.724;2023-03-17T03:58:43;1.30;99.90
3488;DHT22;38546;48.170;11.724;2023-03-17T04:01:33;1.30;99.90
3488;DHT22;38546;48.170;11.724;2023-03-17T04:04:22;1.30;99.90
3488;DHT22;38546;48.170;11.724;2023-03-17T04:07:12;1.40;99.90
3488;DHT22;38546;48.170;11.724;2023-03-17T04:10:02;1.40;99.90
3488;DHT22;38546;48.170;11.724;2023-03-17T04:12:52;1.50;99.90
3488;DHT22;38546;48.170;11.724;2023-03-17T04:15:41;1.50;99.90
3488;DHT22;38546;48.170;11.724;2023-03-17T04:18:31;1.50;99.90
3488;DHT22;38546;48.170;11.724;2023-03-17T04:21:28;1.50;99.90
3488;DHT22;38546;48.170;11.724;2023-03-17T04:24:18;1.60;99.90
3488;DHT22;38546;48.170;11.724;2023-03-17T04:27:08;1.60;99.90
3488;DHT22;38546;48.170;11.724;2023-03-17T04:29:57;1.60;99.90
3488;DHT22;38546;48.170;11.724;2023-03-17T04:32:46;1.60;99.90
3488;DHT22;38546;48.170;11.724;2023-03-17T04:35:36;1.50;99.90
3488;DHT22;38546;48.170;11.724;2023-03-17T04:38:25;1.60;99.90
3488;DHT22;38546;48.170;11.724;2023-03-17T04:41:15;1.60;99.90
3488;DHT22;38546;48.170;11.724;2023-03-17T04:44:05;1.60;99.90
3488;DHT22;38546;48.170;11.724;2023-03-17T04:46:55;1.60;99.90
3488;DHT22;38546;48.170;11.724;2023-03-17T04:49:44;1.60;99.90
3488;DHT22;38546;48.170;11.724;2023-03-17T04:52:35;1.60;99.90
3488;DHT22;38546;48.170;11.724;2023-03-17T04:55:24;1.60;99.90
3488;DHT22;38546;48.170;11.724;2023-03-17T04:58:14;1.60;99.90
3488;DHT22;38546;48.170;11.724;2023-03-17T05:01:04;1.70;99.90
3488;DHT22;38546;48.170;11.724;2023-03-17T05:03:54;1.60;99.90
3488;DHT22;38546;48.170;11.724;2023-03-17T05:06:43;1.30;99.90
3488;DHT22;38546;48.170;11.724;2023-03-17T05:09:32;1.50;99.90
3488;DHT22;38546;48.170;11.724;2023-03-17T05:12:21;1.30;99.90
3488;DHT22;38546;48.170;11.724;2023-03-17T05:15:11;1.20;99.90
3488;DHT22;38546;48.170;11.724;2023-03-17T05:18:00;1.20;99.90
3488;DHT22;38546;48.170;11.724;2023-03-17T05:20:51;1.50;99.90
3488;DHT22;38546;48.170;11.724;2023-03-17T05:23:40;1.30;99.90
3488;DHT22;38546;48.170;11.724;2023-03-17T05:26:30;1.30;99.90
3488;DHT22;38546;48.170;11.724;2023-03-17T05:29:20;1.40;99.90
3488;DHT22;38546;48.170;11.724;2023-03-17T05:32:09;1.50;99.90
3488;DHT22;38546;48.170;11.724;2023-03-17T05:34:58;1.40;99.90
3488;DHT22;38546;48.170;11.724;2023-03-17T05:37:47;1.30;99.90
3488;DHT22;38546;48.170;11.724;2023-03-17T05:40:37;1.30;99.90
3488;DHT22;38546;48.170;11.724;2023-03-17T05:43:26;1.30;99.90
3488;DHT22;38546;48.170;11.724;2023-03-17T05:46:15;1.40;99.90
3488;DHT22;38546;48.170;11.724;2023-03-17T05:49:05;1.40;99.90
3488;DHT22;38546;48.170;11.724;2023-03-17T05:51:55;1.50;99.90
3488;DHT22;38546;48.170;11.724;2023-03-17T05:54:45;1.50;99.90
3488;DHT22;38546;48.170;11.724;2023-03-17T05:57:36;1.60;99.90
3488;DHT22;38546;48.170;11.724;2023-03-17T06:00:26;1.70;99.90
3488;DHT22;38546;48.170;11.724;2023-03-17T06:03:16;1.70;99.90
3488;DHT22;38546;48.170;11.724;2023-03-17T06:06:06;1.80;99.90
3488;DHT22;38546;48.170;11.724;2023-03-17T06:08:55;2.00;99.90
3488;DHT22;38546;48.170;11.724;2023-03-17T06:11:44;2.00;99.90
3488;DHT22;38546;48.170;11.724;2023-03-17T06:14:34;2.20;99.90
3488;DHT22;38546;48.170;11.724;2023-03-17T06:17:24;2.30;99.90
3488;DHT22;38546;48.170;11.724;2023-03-17T06:20:13;2.40;99.90
3488;DHT22;38546;48.170;11.724;2023-03-17T06:23:03;2.50;99.90
3488;DHT22;38546;48.170;11.724;2023-03-17T06:25:52;2.60;99.90
3488;DHT22;38546;48.170;11.724;2023-03-17T06:28:42;2.60;99.90
3488;DHT22;38546;48.170;11.724;2023-03-17T06:31:31;2.70;99.90
3488;DHT22;38546;48.170;11.724;2023-03-17T06:34:22;2.70;99.90
3488;DHT22;38546;48.170;11.724;2023-03-17T06:37:12;2.80;99.90
3488;DHT22;38546;48.170;11.724;2023-03-17T06:40:01;2.90;99.90
3488;DHT22;38546;48.170;11.724;2023-03-17T06:42:53;2.80;99.90
3488;DHT22;38546;48.170;11.724;2023-03-17T06:45:43;2.60;99.90
3488;DHT22;38546;48.170;11.724;2023-03-17T06:48:32;2.50;99.90
3488;DHT22;38546;48.170;11.724;2023-03-17T06:51:22;2.70;99.90
3488;DHT22;38546;48.170;11.724;2023-03-17T06:54:11;2.70;99.90
3488;DHT22;38546;48.170;11.724;2023-03-17T06:57:00;2.80;99.90
3488;DHT22;38546;48.170;11.724;2023-03-17T06:59:50;2.90;99.90
3488;DHT22;38546;48.170;11.724;2023-03-17T07:02:40;3.10;99.90
3488;DHT22;38546;48.170;11.724;2023-03-17T07:05:31;3.40;99.90
3488;DHT22;38546;48.170;11.724;2023-03-17T07:08:21;3.60;99.90
3488;DHT22;38546;48.170;11.724;2023-03-17T07:11:10;3.80;99.90
3488;DHT22;38546;48.170;11.724;2023-03-17T07:14:00;3.90;99.90
3488;DHT22;38546;48.170;11.724;2023-03-17T07:16:50;4.30;99.90
3488;DHT22;38546;48.170;11.724;2023-03-17T07:19:39;4.50;99.90
3488;DHT22;38546;48.170;11.724;2023-03-17T07:22:29;4.70;99.90
3488;DHT22;38546;48.170;11.724;2023-03-17T07:25:18;4.90;99.90
3488;DHT22;38546;48.170;11.724;2023-03-17T07:28:08;5.10;99.90
3488;DHT22;38546;48.170;11.724;2023-03-17T07:30:57;5.30;99.90
3488;DHT22;38546;48.170;11.724;2023-03-17T07:33:46;5.50;99.90
3488;DHT22;38546;48.170;11.724;2023-03-17T07:36:35;5.70;99.90
3488;DHT22;38546;48.170;11.724;2023-03-17T07:39:25;5.90;99.90
3488;DHT22;38546;48.170;11.724;2023-03-17T07:42:15;6.10;99.90
3488;DHT22;38546;48.170;11.724;2023-03-17T07:45:06;6.30;99.90
3488;DHT22;38546;48.170;11.724;2023-03-17T07:47:56;6.50;99.90
3488;DHT22;38546;48.170;11.724;2023-03-17T07:50:45;6.70;99.90
3488;DHT22;38546;48.170;11.724;2023-03-17T07:53:34;6.90;99.90
3488;DHT22;38546;48.170;11.724;2023-03-17T07:56:23;7.10;99.90
3488;DHT22;38546;48.170;11.724;2023-03-17T07:59:12;7.40;99.90
3488;DHT22;38546;48.170;11.724;2023-03-17T08:02:01;7.60;99.90
3488;DHT22;38546;48.170;11.724;2023-03-17T08:04:50;7.80;99.90
3488;DHT22;38546;48.170;11.724;2023-03-17T08:07:39;8.00;99.90
3488;DHT22;38546;48.170;11.724;2023-03-17T08:10:28;8.10;99.90
3488;DHT22;38546;48.170;11.724;2023-03-17T08:13:17;8.20;99.90
3488;DHT22;38546;48.170;11.724;2023-03-17T08:16:08;8.30;99.90
3488;DHT22;38546;48.170;11.724;2023-03-17T08:18:57;8.50;99.90
3488;DHT22;38546;48.170;11.724;2023-03-17T08:21:47;8.50;99.90
3488;DHT22;38546;48.170;11.724;2023-03-17T08:24:37;8.70;99.90
3488;DHT22;38546;48.170;11.724;2023-03-17T08:27:28;8.90;99.90
3488;DHT22;38546;48.170;11.724;2023-03-17T08:30:18;8.90;99.90
3488;DHT22;38546;48.170;11.724;2023-03-17T08:33:08;8.90;99.90
3488;DHT22;38546;48.170;11.724;2023-03-17T08:35:58;9.00;99.90
3488;DHT22;38546;48.170;11.724;2023-03-17T08:38:47;9.10;99.90
3488;DHT22;38546;48.170;11.724;2023-03-17T08:41:37;9.30;99.90
3488;DHT22;38546;48.170;11.724;2023-03-17T08:44:26;9.40;99.90
3488;DHT22;38546;48.170;11.724;2023-03-17T08:47:16;9.60;99.90
3488;DHT22;38546;48.170;11.724;2023-03-17T08:50:09;9.80;99.90
3488;DHT22;38546;48.170;11.724;2023-03-17T08:53:02;9.80;99.90
3488;DHT22;38546;48.170;11.724;2023-03-17T08:55:55;10.00;99.90
3488;DHT22;38546;48.170;11.724;2023-03-17T08:58:45;10.10;99.90
3488;DHT22;38546;48.170;11.724;2023-03-17T09:01:38;10.20;99.90
3488;DHT22;38546;48.170;11.724;2023-03-17T09:04:28;10.20;99.90
3488;DHT22;38546;48.170;11.724;2023-03-17T09:07:17;10.30;99.90
3488;DHT22;38546;48.170;11.724;2023-03-17T09:10:07;10.40;99.90
3488;DHT22;38546;48.170;11.724;2023-03-17T09:12:57;10.60;99.90
3488;DHT22;38546;48.170;11.724;2023-03-17T09:15:52;10.70;99.90
3488;DHT22;38546;48.170;11.724;2023-03-17T09:18:43;10.90;99.90
3488;DHT22;38546;48.170;11.724;2023-03-17T09:21:33;11.10;99.90
3488;DHT22;38546;48.170;11.724;2023-03-17T09:24:22;11.30;99.90
3488;DHT22;38546;48.170;11.724;2023-03-17T09:27:12;11.60;99.90
3488;DHT22;38546;48.170;11.724;2023-03-17T09:30:02;11.80;99.90
3488;DHT22;38546;48.170;11.724;2023-03-17T09:32:51;11.90;99.90
3488;DHT22;38546;48.170;11.724;2023-03-17T09:35:42;12.00;99.90
3488;DHT22;38546;48.170;11.724;2023-03-17T09:38:31;12.20;99.90
3488;DHT22;38546;48.170;11.724;2023-03-17T09:49:50;12.90;99.90
3488;DHT22;38546;48.170;11.724;2023-03-17T09:52:41;13.10;99.90
3488;DHT22;38546;48.170;11.724;2023-03-17T09:55:33;13.20;99.90
3488;DHT22;38546;48.170;11.724;2023-03-17T09:58:28;13.30;99.90
3488;DHT22;38546;48.170;11.724;2023-03-17T10:01:19;13.50;99.90
3488;DHT22;38546;48.170;11.724;2023-03-17T10:04:10;13.60;99.90
3488;DHT22;38546;48.170;11.724;2023-03-17T10:07:03;13.60;99.80
3488;DHT22;38546;48.170;11.724;2023-03-17T10:10:00;13.70;99.40
3488;DHT22;38546;48.170;11.724;2023-03-17T10:16:45;14.00;99.00
3488;DHT22;38546;48.170;11.724;2023-03-17T10:19:59;14.30;99.10
3488;DHT22;38546;48.170;11.724;2023-03-17T10:23:03;14.40;97.80
3488;DHT22;38546;48.170;11.724;2023-03-17T10:25:56;14.70;97.20
3488;DHT22;38546;48.170;11.724;2023-03-17T10:28:50;14.60;98.10
3488;DHT22;38546;48.170;11.724;2023-03-17T10:31:41;14.70;98.50
3488;DHT22;38546;48.170;11.724;2023-03-17T10:34:33;14.70;97.70
3488;DHT22;38546;48.170;11.724;2023-03-17T10:37:24;14.60;97.60
3488;DHT22;38546;48.170;11.724;2023-03-17T10:40:34;14.50;96.30
3488;DHT22;38546;48.170;11.724;2023-03-17T10:43:29;14.60;96.80
3488;DHT22;38546;48.170;11.724;2023-03-17T10:46:24;14.50;97.40
3488;DHT22;38546;48.170;11.724;2023-03-17T10:49:17;14.80;99.90
3488;DHT22;38546;48.170;11.724;2023-03-17T10:52:19;14.60;99.90
3488;DHT22;38546;48.170;11.724;2023-03-17T10:55:15;14.10;99.90
3488;DHT22;38546;48.170;11.724;2023-03-17T10:58:30;14.30;99.90
3488;DHT22;38546;48.170;11.724;2023-03-17T11:01:44;14.30;99.90
3488;DHT22;38546;48.170;11.724;2023-03-17T11:04:39;13.90;99.90
3488;DHT22;38546;48.170;11.724;2023-03-17T11:07:38;14.10;99.90
3488;DHT22;38546;48.170;11.724;2023-03-17T11:10:35;14.20;99.90
3488;DHT22;38546;48.170;11.724;2023-03-17T11:13:29;14.40;99.90
3488;DHT22;38546;48.170;11.724;2023-03-17T11:16:21;14.40;99.90
3488;DHT22;38546;48.170;11.724;2023-03-17T11:19:14;14.50;99.90
3488;DHT22;38546;48.170;11.724;2023-03-17T11:22:10;14.50;99.90
3488;DHT22;38546;48.170;11.724;2023-03-17T11:25:13;14.80;99.50
3488;DHT22;38546;48.170;11.724;2023-03-17T11:28:27;15.00;99.90
3488;DHT22;38546;48.170;11.724;2023-03-17T11:37:10;15.00;99.60
3488;DHT22;38546;48.170;11.724;2023-03-17T11:40:52;14.80;98.90
3488;DHT22;38546;48.170;11.724;2023-03-17T11:47:18;14.70;98.80
3488;DHT22;38546;48.170;11.724;2023-03-17T11:52:17;14.80;99.90
3488;DHT22;38546;48.170;11.724;2023-03-17T11:55:44;14.60;99.90
3488;DHT22;38546;48.170;11.724;2023-03-17T11:58:45;14.50;99.90
3488;DHT22;38546;48.170;11.724;2023-03-17T12:04:24;14.40;99.90
3488;DHT22;38546;48.170;11.724;2023-03-17T12:07:23;14.50;99.90
3488;DHT22;38546;48.170;11.724;2023-03-17T12:10:36;14.20;99.90
3488;DHT22;38546;48.170;11.724;2023-03-17T12:13:44;14.00;99.90
3488;DHT22;38546;48.170;11.724;2023-03-17T12:16:43;13.90;99.90
3488;DHT22;38546;48.170;11.724;2023-03-17T12:19:53;14.20;99.90
3488;DHT22;38546;48.170;11.724;2023-03-17T12:22:54;14.30;99.90
3488;DHT22;38546;48.170;11.724;2023-03-17T12:25:53;14.40;99.90
3488;DHT22;38546;48.170;11.724;2023-03-17T12:29:05;14.20;99.90
3488;DHT22;38546;48.170;11.724;2023-03-17T12:42:15;14.60;99.90
3488;DHT22;38546;48.170;11.724;2023-03-17T12:46:57;14.90;99.90
3488;DHT22;38546;48.170;11.724;2023-03-17T12:52:33;15.00;99.90
3488;DHT22;38546;48.170;11.724;2023-03-17T12:55:32;15.20;99.90
3488;DHT22;38546;48.170;11.724;2023-03-17T12:58:48;15.40;99.90
3488;DHT22;38546;48.170;11.724;2023-03-17T13:01:42;15.10;99.90
3488;DHT22;38546;48.170;11.724;2023-03-17T13:04:35;15.10;99.90
3488;DHT22;38546;48.170;11.724;2023-03-17T13:11:16;15.10;99.90
3488;DHT22;38546;48.170;11.724;2023-03-17T13:21:17;15.10;99.90
3488;DHT22;38546;48.170;11.724;2023-03-17T13:24:20;15.10;99.90
3488;DHT22;38546;48.170;11.724;2023-03-17T13:27:14;15.30;99.90
3488;DHT22;38546;48.170;11.724;2023-03-17T13:30:43;15.20;99.90
3488;DHT22;38546;48.170;11.724;2023-03-17T13:33:44;15.00;99.90
3488;DHT22;38546;48.170;11.724;2023-03-17T13:37:12;15.00;99.90
3488;DHT22;38546;48.170;11.724;2023-03-17T13:40:39;15.20;99.90
3488;DHT22;38546;48.170;11.724;2023-03-17T13:44:18;15.20;99.90
3488;DHT22;38546;48.170;11.724;2023-03-17T13:47:41;15.10;99.90
3488;DHT22;38546;48.170;11.724;2023-03-17T13:50:31;15.30;99.90
3488;DHT22;38546;48.170;11.724;2023-03-17T13:53:23;15.30;99.90
3488;DHT22;38546;48.170;11.724;2023-03-17T13:57:25;15.30;99.90
3488;DHT22;38546;48.170;11.724;2023-03-17T14:00:25;15.20;99.90
3488;DHT22;38546;48.170;11.724;2023-03-17T14:03:28;15.40;99.90
3488;DHT22;38546;48.170;11.724;2023-03-17T14:06:26;15.40;99.90
3488;DHT22;38546;48.170;11.724;2023-03-17T14:09:39;15.40;99.90
3488;DHT22;38546;48.170;11.724;2023-03-17T14:12:50;15.40;99.90
3488;DHT22;38546;48.170;11.724;2023-03-17T14:22:31;15.50;99.90
3488;DHT22;38546;48.170;11.724;2023-03-17T14:25:24;15.30;99.90
3488;DHT22;38546;48.170;11.724;2023-03-17T14:28:25;15.20;99.90
3488;DHT22;38546;48.170;11.724;2023-03-17T14:31:24;15.40;99.90
3488;DHT22;38546;48.170;11.724;2023-03-17T14:34:15;15.40;99.90
3488;DHT22;38546;48.170;11.724;2023-03-17T14:37:10;15.40;99.90
3488;DHT22;38546;48.170;11.724;2023-03-17T14:40:00;15.10;99.90
3488;DHT22;38546;48.170;11.724;2023-03-17T14:42:50;15.10;99.90
3488;DHT22;38546;48.170;11.724;2023-03-17T14:45:58;15.00;99.90
3488;DHT22;38546;48.170;11.724;2023-03-17T14:49:00;15.00;99.90
3488;DHT22;38546;48.170;11.724;2023-03-17T14:52:04;15.10;99.90
3488;DHT22;38546;48.170;11.724;2023-03-17T14:54:57;15.10;99.90
3488;DHT22;38546;48.170;11.724;2023-03-17T14:57:51;15.20;99.90
3488;DHT22;38546;48.170;11.724;2023-03-17T15:00:45;15.20;99.90
3488;DHT22;38546;48.170;11.724;2023-03-17T15:03:39;15.00;99.90
3488;DHT22;38546;48.170;11.724;2023-03-17T15:06:50;14.90;99.90
3488;DHT22;38546;48.170;11.724;2023-03-17T15:09:40;14.90;99.90
3488;DHT22;38546;48.170;11.724;2023-03-17T15:12:30;14.80;99.90
3488;DHT22;38546;48.170;11.724;2023-03-17T15:15:23;14.90;99.90
3488;DHT22;38546;48.170;11.724;2023-03-17T15:18:14;14.80;99.90
3488;DHT22;38546;48.170;11.724;2023-03-17T15:21:03;14.90;99.90
3488;DHT22;38546;48.170;11.724;2023-03-17T15:23:57;14.70;99.90
3488;DHT22;38546;48.170;11.724;2023-03-17T15:26:46;14.80;99.90
3488;DHT22;38546;48.170;11.724;2023-03-17T15:29:35;14.80;99.90
3488;DHT22;38546;48.170;11.724;2023-03-17T15:32:26;14.70;99.90
3488;DHT22;38546;48.170;11.724;2023-03-17T15:35:17;14.70;99.90
3488;DHT22;38546;48.170;11.724;2023-03-17T15:38:08;14.70;99.90
3488;DHT22;38546;48.170;11.724;2023-03-17T15:40:59;14.70;99.90
3488;DHT22;38546;48.170;11.724;2023-03-17T15:43:48;14.60;99.90
3488;DHT22;38546;48.170;11.724;2023-03-17T15:46:37;14.70;99.90
3488;DHT22;38546;48.170;11.724;2023-03-17T15:49:26;14.60;99.90
3488;DHT22;38546;48.170;11.724;2023-03-17T15:52:18;14.60;99.90
3488;DHT22;38546;48.170;11.724;2023-03-17T15:55:19;14.60;99.90
3488;DHT22;38546;48.170;11.724;2023-03-17T15:58:09;14.80;99.90
3488;DHT22;38546;48.170;11.724;2023-03-17T16:00:59;14.70;99.90
3488;DHT22;38546;48.170;11.724;2023-03-17T16:03:48;14.70;99.90
3488;DHT22;38546;48.170;11.724;2023-03-17T16:06:37;14.70;99.90
3488;DHT22;38546;48.170;11.724;2023-03-17T16:09:27;14.50;99.90
3488;DHT22;38546;48.170;11.724;2023-03-17T16:12:16;14.40;99.90
3488;DHT22;38546;48.170;11.724;2023-03-17T16:15:07;14.50;99.90
3488;DHT22;38546;48.170;11.724;2023-03-17T16:18:04;14.50;99.90
3488;DHT22;38546;48.170;11.724;2023-03-17T16:20:56;14.50;99.90
3488;DHT22;38546;48.170;11.724;2023-03-17T16:23:46;14.40;99.90
3488;DHT22;38546;48.170;11.724;2023-03-17T16:26:36;14.30;99.90
3488;DHT22;38546;48.170;11.724;2023-03-17T16:29:25;14.30;99.90
3488;DHT22;38546;48.170;11.724;2023-03-17T16:32:14;14.10;99.90
3488;DHT22;38546;48.170;11.724;2023-03-17T16:35:11;14.20;99.90
3488;DHT22;38546;48.170;11.724;2023-03-17T16:38:01;14.30;99.90
3488;DHT22;38546;48.170;11.724;2023-03-17T16:40:57;14.20;99.90
3488;DHT22;38546;48.170;11.724;2023-03-17T16:43:53;14.30;99.90
3488;DHT22;38546;48.170;11.724;2023-03-17T16:46:47;14.00;99.90
3488;DHT22;38546;48.170;11.724;2023-03-17T16:49:36;14.10;99.90
3488;DHT22;38546;48.170;11.724;2023-03-17T16:52:25;14.00;99.90
3488;DHT22;38546;48.170;11.724;2023-03-17T16:55:17;13.80;99.90
3488;DHT22;38546;48.170;11.724;2023-03-17T16:58:22;13.60;99.90
3488;DHT22;38546;48.170;11.724;2023-03-17T17:01:20;13.50;99.90
3488;DHT22;38546;48.170;11.724;2023-03-17T17:04:11;13.30;99.90
3488;DHT22;38546;48.170;11.724;2023-03-17T17:07:00;13.20;99.90
3488;DHT22;38546;48.170;11.724;2023-03-17T17:09:48;13.20;99.90
3488;DHT22;38546;48.170;11.724;2023-03-17T17:12:38;13.10;99.90
3488;DHT22;38546;48.170;11.724;2023-03-17T17:15:28;12.90;99.90
3488;DHT22;38546;48.170;11.724;2023-03-17T17:18:20;12.80;99.90
3488;DHT22;38546;48.170;11.724;2023-03-17T17:21:09;12.70;99.90
3488;DHT22;38546;48.170;11.724;2023-03-17T17:23:59;12.60;99.90
3488;DHT22;38546;48.170;11.724;2023-03-17T17:26:49;12.50;99.90
3488;DHT22;38546;48.170;11.724;2023-03-17T17:29:38;12.40;99.90
3488;DHT22;38546;48.170;11.724;2023-03-17T17:32:28;12.30;99.90
3488;DHT22;38546;48.170;11.724;2023-03-17T17:35:17;12.20;99.90
3488;DHT22;38546;48.170;11.724;2023-03-17T17:38:22;12.10;99.90
3488;DHT22;38546;48.170;11.724;2023-03-17T17:41:14;12.00;99.90
3488;DHT22;38546;48.170;11.724;2023-03-17T17:44:04;11.90;99.90
3488;DHT22;38546;48.170;11.724;2023-03-17T17:46:53;11.90;99.90
3488;DHT22;38546;48.170;11.724;2023-03-17T17:49:43;11.80;99.90
3488;DHT22;38546;48.170;11.724;2023-03-17T17:52:33;11.80;99.90
3488;DHT22;38546;48.170;11.724;2023-03-17T17:55:23;11.80;99.90
3488;DHT22;38546;48.170;11.724;2023-03-17T17:58:17;11.70;99.90
3488;DHT22;38546;48.170;11.724;2023-03-17T18:01:09;11.70;99.90
3488;DHT22;38546;48.170;11.724;2023-03-17T18:04:00;11.60;99.90
3488;DHT22;38546;48.170;11.724;2023-03-17T18:06:49;11.60;99.90
3488;DHT22;38546;48.170;11.724;2023-03-17T18:09:38;11.60;99.90
3488;DHT22;38546;48.170;11.724;2023-03-17T18:12:27;11.50;99.90
3488;DHT22;38546;48.170;11.724;2023-03-17T18:15:16;11.50;99.90
3488;DHT22;38546;48.170;11.724;2023-03-17T18:18:05;11.40;99.90
3488;DHT22;38546;48.170;11.724;2023-03-17T18:20:54;11.40;99.90
3488;DHT22;38546;48.170;11.724;2023-03-17T18:23:44;11.30;99.90
3488;DHT22;38546;48.170;11.724;2023-03-17T18:26:37;11.30;99.90
3488;DHT22;38546;48.170;11.724;2023-03-17T18:29:27;11.20;99.90
3488;DHT22;38546;48.170;11.724;2023-03-17T18:32:15;11.20;99.90
3488;DHT22;38546;48.170;11.724;2023-03-17T18:35:08;11.10;99.90
3488;DHT22;38546;48.170;11.724;2023-03-17T18:38:00;11.00;99.90
3488;DHT22;38546;48.170;11.724;2023-03-17T18:40:49;10.90;99.90
3488;DHT22;38546;48.170;11.724;2023-03-17T18:43:39;10.80;99.90
3488;DHT22;38546;48.170;11.724;2023-03-17T18:46:32;10.80;99.90
3488;DHT22;38546;48.170;11.724;2023-03-17T18:49:22;10.70;99.90
3488;DHT22;38546;48.170;11.724;2023-03-17T18:52:13;10.60;99.90
3488;DHT22;38546;48.170;11.724;2023-03-17T18:55:03;10.50;99.90
3488;DHT22;38546;48.170;11.724;2023-03-17T18:57:53;10.40;99.90
3488;DHT22;38546;48.170;11.724;2023-03-17T19:00:42;10.30;99.90
3488;DHT22;38546;48.170;11.724;2023-03-17T19:03:31;10.20;99.90
3488;DHT22;38546;48.170;11.724;2023-03-17T19:06:22;10.10;99.90
3488;DHT22;38546;48.170;11.724;2023-03-17T19:09:11;10.00;99.90
3488;DHT22;38546;48.170;11.724;2023-03-17T19:12:01;9.90;99.90
3488;DHT22;38546;48.170;11.724;2023-03-17T19:14:50;9.90;99.90
3488;DHT22;38546;48.170;11.724;2023-03-17T19:17:40;9.80;99.90
3488;DHT22;38546;48.170;11.724;2023-03-17T19:20:29;9.70;99.90
3488;DHT22;38546;48.170;11.724;2023-03-17T19:23:22;9.60;99.90